createdAt,value
2017-12-04T00:00:10.155Z,4.0
2017-12-04T00:01:11.541Z,4.0
2017-12-04T00:02:12.926Z,4.0
2017-12-04T00:03:14.321Z,4.0
2017-12-04T00:04:15.660Z,4.0
2017-12-04T00:05:16.999Z,4.1
2017-12-04T00:06:18.383Z,4.0
2017-12-04T00:07:19.768Z,4.1
2017-12-04T00:08:21.149Z,4.1
2017-12-04T00:09:22.533Z,4.0
2017-12-04T00:10:23.916Z,4.1
2017-12-04T00:11:25.301Z,4.1
2017-12-04T00:12:26.685Z,4.1
2017-12-04T00:13:28.075Z,4.0
2017-12-04T00:14:29.455Z,4.1
2017-12-04T00:15:30.838Z,4.1
2017-12-04T00:16:32.225Z,4.1
2017-12-04T00:17:33.605Z,4.1
2017-12-04T00:18:34.988Z,4.1
2017-12-04T00:19:36.370Z,4.2
2017-12-04T00:20:37.750Z,4.1
2017-12-04T00:21:39.147Z,4.1
2017-12-04T00:22:40.594Z,4.1
2017-12-04T00:23:41.981Z,4.1
2017-12-04T00:24:43.363Z,4.1
2017-12-04T00:25:44.742Z,4.0
2017-12-04T00:26:46.129Z,4.1
2017-12-04T00:27:47.512Z,4.1
2017-12-04T00:28:48.895Z,4.1
2017-12-04T00:29:50.280Z,4.2
2017-12-04T00:30:51.665Z,4.0
2017-12-04T00:31:53.047Z,4.1
2017-12-04T00:32:54.427Z,4.1
2017-12-04T00:33:55.808Z,4.1
2017-12-04T00:34:57.193Z,4.1
2017-12-04T00:35:58.577Z,4.2
2017-12-04T00:36:59.960Z,4.1
2017-12-04T00:38:01.347Z,4.1
2017-12-04T00:39:02.729Z,4.1
2017-12-04T00:40:04.112Z,4.1
2017-12-04T00:41:05.494Z,4.2
2017-12-04T00:42:06.879Z,4.1
2017-12-04T00:43:08.264Z,4.2
2017-12-04T00:44:09.645Z,4.1
2017-12-04T00:45:11.030Z,4.1
2017-12-04T00:46:12.414Z,4.2
2017-12-04T00:47:13.798Z,4.2
2017-12-04T00:48:15.180Z,4.1
2017-12-04T00:49:16.563Z,4.2
2017-12-04T00:50:17.950Z,4.1
2017-12-04T00:51:19.340Z,4.1
2017-12-04T00:52:20.720Z,4.1
2017-12-04T00:53:22.101Z,4.1
2017-12-04T00:54:23.484Z,4.2
2017-12-04T00:55:24.866Z,4.2
2017-12-04T00:56:26.249Z,4.0
2017-12-04T00:57:27.630Z,4.1
2017-12-04T00:58:29.014Z,4.2
2017-12-04T00:59:30.401Z,4.2
2017-12-04T01:00:31.839Z,4.1
2017-12-04T01:01:33.168Z,4.2
2017-12-04T01:02:34.550Z,4.2
2017-12-04T01:03:35.932Z,4.2
2017-12-04T01:04:37.318Z,4.2
2017-12-04T01:05:38.704Z,4.3
2017-12-04T01:06:40.090Z,4.2
2017-12-04T01:07:41.475Z,4.3
2017-12-04T01:08:42.875Z,4.2
2017-12-04T01:09:44.244Z,4.2
2017-12-04T01:10:45.624Z,4.2
2017-12-04T01:11:47.006Z,4.2
2017-12-04T01:12:48.392Z,4.2
2017-12-04T01:13:49.778Z,4.2
2017-12-04T01:14:51.162Z,4.2
2017-12-04T01:15:52.546Z,4.3
2017-12-04T01:16:53.928Z,4.3
2017-12-04T01:17:55.311Z,4.2
2017-12-04T01:18:56.705Z,4.2
2017-12-04T01:19:58.084Z,4.2
2017-12-04T01:20:59.468Z,4.2
2017-12-04T01:22:00.850Z,4.2
2017-12-04T01:23:02.232Z,4.2
2017-12-04T01:24:03.616Z,4.2
2017-12-04T01:25:05.000Z,4.2
2017-12-04T01:26:06.383Z,4.3
2017-12-04T01:27:07.768Z,4.2
2017-12-04T01:28:09.152Z,4.2
2017-12-04T01:29:10.534Z,4.2
2017-12-04T01:30:11.917Z,4.2
2017-12-04T01:31:13.302Z,4.1
2017-12-04T01:32:14.680Z,4.0
2017-12-04T01:33:16.064Z,4.1
2017-12-04T01:34:17.448Z,4.2
2017-12-04T01:35:18.832Z,4.1
2017-12-04T01:36:20.214Z,4.1
2017-12-04T01:37:21.597Z,4.1
2017-12-04T01:38:22.982Z,4.0
2017-12-04T01:39:24.366Z,4.1
2017-12-04T01:40:25.750Z,4.2
2017-12-04T01:41:27.133Z,4.1
2017-12-04T01:42:28.518Z,4.1
2017-12-04T01:43:29.910Z,4.1
2017-12-04T01:44:31.293Z,4.1
2017-12-04T01:45:32.681Z,4.1
2017-12-04T01:46:34.057Z,4.1
2017-12-04T01:47:35.440Z,4.1
2017-12-04T01:48:36.826Z,4.1
2017-12-04T01:49:38.211Z,4.2
2017-12-04T01:50:39.595Z,4.1
2017-12-04T01:51:40.975Z,4.1
2017-12-04T01:52:42.355Z,4.1
2017-12-04T01:53:43.737Z,4.1
2017-12-04T01:54:45.121Z,4.1
2017-12-04T01:55:46.506Z,4.1
2017-12-04T01:56:47.890Z,4.1
2017-12-04T01:57:49.271Z,4.2
2017-12-04T01:58:50.650Z,4.1
2017-12-04T01:59:52.035Z,4.0
2017-12-04T02:00:53.418Z,4.0
2017-12-04T02:01:54.802Z,4.2
2017-12-04T02:02:56.187Z,4.2
2017-12-04T02:03:57.572Z,4.1
2017-12-04T02:04:58.951Z,4.2
2017-12-04T02:06:00.332Z,4.2
2017-12-04T02:07:01.718Z,4.1
2017-12-04T02:08:03.135Z,4.1
2017-12-04T02:09:04.507Z,4.3
2017-12-04T02:10:05.892Z,4.2
2017-12-04T02:11:07.278Z,4.2
2017-12-04T02:12:08.657Z,4.2
2017-12-04T02:13:10.038Z,4.2
2017-12-04T02:14:11.420Z,4.2
2017-12-04T02:15:12.804Z,4.2
2017-12-04T02:16:14.190Z,4.2
2017-12-04T02:17:15.579Z,4.2
2017-12-04T02:18:16.965Z,4.3
2017-12-04T02:19:18.349Z,4.2
2017-12-04T02:20:19.731Z,4.2
2017-12-04T02:21:21.114Z,4.2
2017-12-04T02:22:22.496Z,4.2
2017-12-04T02:23:23.884Z,4.3
2017-12-04T02:24:25.267Z,4.2
2017-12-04T02:25:26.654Z,4.2
2017-12-04T02:26:28.037Z,4.2
2017-12-04T02:27:29.416Z,4.2
2017-12-04T02:28:30.801Z,4.3
2017-12-04T02:29:32.183Z,4.2
2017-12-04T02:30:33.567Z,4.2
2017-12-04T02:31:34.954Z,4.2
2017-12-04T02:32:36.339Z,4.2
2017-12-04T02:33:37.717Z,4.2
2017-12-04T02:34:39.099Z,4.2
2017-12-04T02:35:40.482Z,4.3
2017-12-04T02:36:41.869Z,4.3
2017-12-04T02:37:43.250Z,4.2
2017-12-04T02:38:44.636Z,4.3
2017-12-04T02:39:46.024Z,4.4
2017-12-04T02:40:47.405Z,4.3
2017-12-04T02:41:48.786Z,4.3
2017-12-04T02:42:50.166Z,4.3
2017-12-04T02:43:51.551Z,4.3
2017-12-04T02:44:52.936Z,4.3
2017-12-04T02:45:54.319Z,4.3
2017-12-04T02:46:55.706Z,4.2
2017-12-04T02:47:57.088Z,4.4
2017-12-04T02:48:58.470Z,4.4
2017-12-04T02:49:59.853Z,4.3
2017-12-04T02:51:01.237Z,4.3
2017-12-04T02:52:02.624Z,4.3
2017-12-04T02:53:04.005Z,4.3
2017-12-04T02:54:05.391Z,4.4
2017-12-04T02:55:06.772Z,4.4
2017-12-04T02:56:08.152Z,4.4
2017-12-04T02:57:09.532Z,4.4
2017-12-04T02:58:10.915Z,4.4
2017-12-04T02:59:12.305Z,4.4
2017-12-04T03:00:13.681Z,4.4
2017-12-04T03:01:15.067Z,4.4
2017-12-04T03:02:16.461Z,4.3
2017-12-04T03:03:17.856Z,4.4
2017-12-04T03:04:19.240Z,4.4
2017-12-04T03:05:20.623Z,4.5
2017-12-04T03:06:22.008Z,4.4
2017-12-04T03:07:23.392Z,4.5
2017-12-04T03:08:24.774Z,4.5
2017-12-04T03:09:26.153Z,4.4
2017-12-04T03:10:27.533Z,4.5
2017-12-04T03:11:28.917Z,4.5
2017-12-04T03:12:30.300Z,4.5
2017-12-04T03:13:31.683Z,4.5
2017-12-04T03:14:33.068Z,4.5
2017-12-04T03:15:34.454Z,4.5
2017-12-04T03:16:35.837Z,4.5
2017-12-04T03:17:37.218Z,4.5
2017-12-04T03:18:38.600Z,4.5
2017-12-04T03:19:40.041Z,4.5
2017-12-04T03:20:41.428Z,4.5
2017-12-04T03:21:42.809Z,4.5
2017-12-04T03:22:44.193Z,4.5
2017-12-04T03:23:45.575Z,4.5
2017-12-04T03:24:46.957Z,4.5
2017-12-04T03:25:48.340Z,4.5
2017-12-04T03:26:49.720Z,4.5
2017-12-04T03:27:51.105Z,4.5
2017-12-04T03:28:52.493Z,4.6
2017-12-04T03:29:53.922Z,4.6
2017-12-04T03:30:55.299Z,4.5
2017-12-04T03:31:56.681Z,4.6
2017-12-04T03:32:58.062Z,4.6
2017-12-04T03:33:59.446Z,4.6
2017-12-04T03:35:00.832Z,4.6
2017-12-04T03:36:02.218Z,4.6
2017-12-04T03:37:03.603Z,4.6
2017-12-04T03:38:04.985Z,4.7
2017-12-04T03:39:06.365Z,4.6
2017-12-04T03:40:07.748Z,4.6
2017-12-04T03:41:09.133Z,4.7
2017-12-04T03:42:10.521Z,4.7
2017-12-04T03:43:11.904Z,4.7
2017-12-04T03:44:13.291Z,4.6
2017-12-04T03:45:14.674Z,4.7
2017-12-04T03:46:16.061Z,4.7
2017-12-04T03:47:17.445Z,4.7
2017-12-04T03:48:18.827Z,4.7
2017-12-04T03:49:20.209Z,4.7
2017-12-04T03:50:21.594Z,4.8
2017-12-04T03:51:22.980Z,4.7
2017-12-04T03:52:24.363Z,4.7
2017-12-04T03:53:25.743Z,4.7
2017-12-04T03:54:27.125Z,4.7
2017-12-04T03:55:28.566Z,4.8
2017-12-04T03:56:29.973Z,4.7
2017-12-04T03:57:31.361Z,4.7
2017-12-04T03:58:32.748Z,4.7
2017-12-04T03:59:34.131Z,4.8
2017-12-04T04:00:35.512Z,4.8
2017-12-04T04:01:36.897Z,4.9
2017-12-04T04:02:38.282Z,4.8
2017-12-04T04:03:39.665Z,4.9
2017-12-04T04:04:41.047Z,4.8
2017-12-04T04:05:42.433Z,4.8
2017-12-04T04:06:43.814Z,4.7
2017-12-04T04:07:45.198Z,4.8
2017-12-04T04:08:46.581Z,4.8
2017-12-04T04:09:47.964Z,4.7
2017-12-04T04:10:49.350Z,4.8
2017-12-04T04:11:50.735Z,4.7
2017-12-04T04:12:52.121Z,4.8
2017-12-04T04:13:53.504Z,4.7
2017-12-04T04:14:54.886Z,4.7
2017-12-04T04:15:56.268Z,4.7
2017-12-04T04:16:57.651Z,4.7
2017-12-04T04:17:59.035Z,4.8
2017-12-04T04:19:00.423Z,4.7
2017-12-04T04:20:01.807Z,4.7
2017-12-04T04:21:03.187Z,4.7
2017-12-04T04:22:04.572Z,4.8
2017-12-04T04:23:05.955Z,4.9
2017-12-04T04:24:07.339Z,4.8
2017-12-04T04:25:08.721Z,4.8
2017-12-04T04:26:10.106Z,4.8
2017-12-04T04:27:11.495Z,4.8
2017-12-04T04:28:12.876Z,4.8
2017-12-04T04:29:14.257Z,4.8
2017-12-04T04:30:15.643Z,4.7
2017-12-04T04:31:17.028Z,4.8
2017-12-04T04:32:18.465Z,4.8
2017-12-04T04:33:19.793Z,4.7
2017-12-04T04:34:21.181Z,4.8
2017-12-04T04:35:22.560Z,4.7
2017-12-04T04:36:23.942Z,4.8
2017-12-04T04:37:25.327Z,4.8
2017-12-04T04:38:26.712Z,4.8
2017-12-04T04:39:28.096Z,4.8
2017-12-04T04:40:29.480Z,4.9
2017-12-04T04:41:30.865Z,4.8
2017-12-04T04:42:32.249Z,4.8
2017-12-04T04:43:33.634Z,4.9
2017-12-04T04:44:35.020Z,4.8
2017-12-04T04:45:36.401Z,4.8
2017-12-04T04:46:37.787Z,4.8
2017-12-04T04:47:39.174Z,4.8
2017-12-04T04:48:40.557Z,4.8
2017-12-04T04:49:41.952Z,4.9
2017-12-04T04:50:43.334Z,4.8
2017-12-04T04:51:44.720Z,4.8
2017-12-04T04:52:46.128Z,4.9
2017-12-04T04:53:47.487Z,4.8
2017-12-04T04:54:48.872Z,4.8
2017-12-04T04:55:50.260Z,4.8
2017-12-04T04:56:51.642Z,4.8
2017-12-04T04:57:53.022Z,4.9
2017-12-04T04:58:54.406Z,4.9
2017-12-04T04:59:55.790Z,4.9
2017-12-04T05:00:57.175Z,4.8
2017-12-04T05:01:58.561Z,4.9
2017-12-04T05:02:59.948Z,4.8
2017-12-04T05:04:01.330Z,4.8
2017-12-04T05:05:02.713Z,4.8
2017-12-04T05:06:04.094Z,4.8
2017-12-04T05:07:05.479Z,4.9
2017-12-04T05:08:06.863Z,4.8
2017-12-04T05:09:08.246Z,4.9
2017-12-04T05:10:09.633Z,4.9
2017-12-04T05:11:11.018Z,4.9
2017-12-04T05:12:12.399Z,5.0
2017-12-04T05:13:13.781Z,4.8
2017-12-04T05:14:15.164Z,5.0
2017-12-04T05:15:16.549Z,4.8
2017-12-04T05:16:17.935Z,4.9
2017-12-04T05:17:19.318Z,4.9
2017-12-04T05:18:20.701Z,4.9
2017-12-04T05:19:22.086Z,4.8
2017-12-04T05:20:23.473Z,4.9
2017-12-04T05:21:24.852Z,4.9
2017-12-04T05:22:26.242Z,5.0
2017-12-04T05:23:27.622Z,4.9
2017-12-04T05:24:29.007Z,4.9
2017-12-04T05:25:30.392Z,4.9
2017-12-04T05:26:31.774Z,5.0
2017-12-04T05:27:33.158Z,4.9
2017-12-04T05:28:34.538Z,4.9
2017-12-04T05:29:35.927Z,5.0
2017-12-04T05:30:37.310Z,5.0
2017-12-04T05:31:38.697Z,4.9
2017-12-04T05:32:40.082Z,4.9
2017-12-04T05:33:41.467Z,4.9
2017-12-04T05:34:42.848Z,4.9
2017-12-04T05:35:44.230Z,4.9
2017-12-04T05:36:45.623Z,4.9
2017-12-04T05:37:47.004Z,5.0
2017-12-04T05:38:48.390Z,4.9
2017-12-04T05:39:49.775Z,4.9
2017-12-04T05:40:51.156Z,4.9
2017-12-04T05:41:52.642Z,4.9
2017-12-04T05:42:54.070Z,5.0
2017-12-04T05:43:55.425Z,5.0
2017-12-04T05:44:56.809Z,4.9
2017-12-04T05:45:58.198Z,5.0
2017-12-04T05:46:59.582Z,5.0
2017-12-04T05:48:00.962Z,4.9
2017-12-04T05:49:02.347Z,5.1
2017-12-04T05:50:03.730Z,5.0
2017-12-04T05:51:05.114Z,5.0
2017-12-04T05:52:06.500Z,5.0
2017-12-04T05:53:07.887Z,5.0
2017-12-04T05:54:09.270Z,5.1
2017-12-04T05:55:10.651Z,5.1
2017-12-04T05:56:12.036Z,5.1
2017-12-04T05:57:13.417Z,5.1
2017-12-04T05:58:14.804Z,5.1
2017-12-04T05:59:16.188Z,5.2
2017-12-04T06:00:17.574Z,5.1
2017-12-04T06:01:18.956Z,5.1
2017-12-04T06:02:20.342Z,5.2
2017-12-04T06:03:21.720Z,5.1
2017-12-04T06:04:23.109Z,5.2
2017-12-04T06:05:24.496Z,5.2
2017-12-04T06:06:25.879Z,5.2
2017-12-04T06:07:27.268Z,5.1
2017-12-04T06:08:28.649Z,5.2
2017-12-04T06:09:30.036Z,5.2
2017-12-04T06:10:31.418Z,5.2
2017-12-04T06:11:32.800Z,5.2
2017-12-04T06:12:34.574Z,5.2
2017-12-04T06:13:35.951Z,5.3
2017-12-04T06:14:37.802Z,5.2
2017-12-04T06:15:39.540Z,5.2
2017-12-04T06:16:40.926Z,5.2
2017-12-04T06:17:42.308Z,5.2
2017-12-04T06:18:43.694Z,5.3
2017-12-04T06:19:45.077Z,5.3
2017-12-04T06:20:46.462Z,5.3
2017-12-04T06:21:47.845Z,5.3
2017-12-04T06:22:49.226Z,5.3
2017-12-04T06:23:50.610Z,5.4
2017-12-04T06:24:51.995Z,5.4
2017-12-04T06:25:53.379Z,5.4
2017-12-04T06:26:54.762Z,5.3
2017-12-04T06:27:56.148Z,5.4
2017-12-04T06:28:57.537Z,5.3
2017-12-04T06:29:58.926Z,5.3
2017-12-04T06:31:00.310Z,5.4
2017-12-04T06:32:01.695Z,5.4
2017-12-04T06:33:03.075Z,5.3
2017-12-04T06:34:04.458Z,5.4
2017-12-04T06:35:05.846Z,5.4
2017-12-04T06:36:07.233Z,5.5
2017-12-04T06:37:08.615Z,5.5
2017-12-04T06:38:09.997Z,5.5
2017-12-04T06:39:11.380Z,5.5
2017-12-04T06:40:12.766Z,5.5
2017-12-04T06:41:14.162Z,5.4
2017-12-04T06:42:15.545Z,5.4
2017-12-04T06:43:16.931Z,5.4
2017-12-04T06:44:18.316Z,5.6
2017-12-04T06:45:19.700Z,5.4
2017-12-04T06:46:21.082Z,5.6
2017-12-04T06:47:22.465Z,5.6
2017-12-04T06:48:23.854Z,5.6
2017-12-04T06:49:25.241Z,5.6
2017-12-04T06:50:26.627Z,5.5
2017-12-04T06:51:28.013Z,5.6
2017-12-04T06:52:29.398Z,5.6
2017-12-04T06:53:30.782Z,5.5
2017-12-04T06:54:32.169Z,5.6
2017-12-04T06:55:33.554Z,5.5
2017-12-04T06:56:34.939Z,5.6
2017-12-04T06:57:36.330Z,5.6
2017-12-04T06:58:37.713Z,5.6
2017-12-04T06:59:39.095Z,5.6
2017-12-04T07:00:40.480Z,5.6
2017-12-04T07:01:41.861Z,5.6
2017-12-04T07:02:43.247Z,5.6
2017-12-04T07:03:44.632Z,5.5
2017-12-04T07:04:46.018Z,5.6
2017-12-04T07:05:47.406Z,5.6
2017-12-04T07:06:48.785Z,5.5
2017-12-04T07:07:50.170Z,5.5
2017-12-04T07:08:51.558Z,5.6
2017-12-04T07:09:52.942Z,5.6
2017-12-04T07:10:54.327Z,5.6
2017-12-04T07:11:55.714Z,5.5
2017-12-04T07:12:57.098Z,5.4
2017-12-04T07:13:58.482Z,5.5
2017-12-04T07:14:59.869Z,5.4
2017-12-04T07:16:01.254Z,5.5
2017-12-04T07:17:02.640Z,5.4
2017-12-04T07:18:04.028Z,5.5
2017-12-04T07:19:05.415Z,5.4
2017-12-04T07:20:06.797Z,5.5
2017-12-04T07:21:08.250Z,5.4
2017-12-04T07:22:09.625Z,5.6
2017-12-04T07:23:11.009Z,5.5
2017-12-04T07:24:12.395Z,5.5
2017-12-04T07:25:13.786Z,5.4
2017-12-04T07:26:15.327Z,5.6
2017-12-04T07:27:16.726Z,5.6
2017-12-04T07:28:18.114Z,5.5
2017-12-04T07:29:19.498Z,5.5
2017-12-04T07:30:20.889Z,5.6
2017-12-04T07:31:22.275Z,5.6
2017-12-04T07:32:23.662Z,5.6
2017-12-04T07:33:25.054Z,5.5
2017-12-04T07:34:26.438Z,5.6
2017-12-04T07:35:27.828Z,5.5
2017-12-04T07:36:29.216Z,5.5
2017-12-04T07:37:30.610Z,5.6
2017-12-04T07:38:32.000Z,5.6
2017-12-04T07:39:33.386Z,5.5
2017-12-04T07:40:34.776Z,5.5
2017-12-04T07:41:36.163Z,5.6
2017-12-04T07:42:37.545Z,5.6
2017-12-04T07:43:38.930Z,5.7
2017-12-04T07:44:40.315Z,5.6
2017-12-04T07:45:41.707Z,5.6
2017-12-04T07:46:43.627Z,5.6
2017-12-04T07:47:45.017Z,5.6
2017-12-04T07:48:46.405Z,5.6
2017-12-04T07:49:47.799Z,5.6
2017-12-04T07:50:49.179Z,5.7
2017-12-04T07:51:50.566Z,5.6
2017-12-04T07:52:51.951Z,5.7
2017-12-04T07:53:53.340Z,5.7
2017-12-04T07:54:54.732Z,5.6
2017-12-04T07:55:56.119Z,5.7
2017-12-04T07:56:57.502Z,5.7
2017-12-04T07:57:58.886Z,5.7
2017-12-04T07:59:00.269Z,5.8
2017-12-04T08:00:01.654Z,5.7
2017-12-04T08:01:03.046Z,5.8
2017-12-04T08:02:04.438Z,5.8
2017-12-04T08:03:05.826Z,5.9
2017-12-04T08:04:07.211Z,5.9
2017-12-04T08:05:08.609Z,6.0
2017-12-04T08:06:09.988Z,6.0
2017-12-04T08:07:11.380Z,6.1
2017-12-04T08:08:12.768Z,6.1
2017-12-04T08:09:14.157Z,6.0
2017-12-04T08:10:15.543Z,6.1
2017-12-04T08:11:16.930Z,6.1
2017-12-04T08:12:18.317Z,6.1
2017-12-04T08:13:19.702Z,6.2
2017-12-04T08:14:21.122Z,6.2
2017-12-04T08:15:22.486Z,6.1
2017-12-04T08:16:23.875Z,6.2
2017-12-04T08:17:25.273Z,6.2
2017-12-04T08:18:26.686Z,6.2
2017-12-04T08:19:28.071Z,6.2
2017-12-04T08:20:29.459Z,6.1
2017-12-04T08:21:30.852Z,6.2
2017-12-04T08:22:32.245Z,6.2
2017-12-04T08:23:33.634Z,6.2
2017-12-04T08:24:35.024Z,6.2
2017-12-04T08:25:36.418Z,6.1
2017-12-04T08:26:37.807Z,6.2
2017-12-04T08:27:39.194Z,6.2
2017-12-04T08:28:40.582Z,6.2
2017-12-04T08:29:42.769Z,6.1
2017-12-04T08:30:44.159Z,6.2
2017-12-04T08:31:45.646Z,6.2
2017-12-04T08:32:47.034Z,6.2
2017-12-04T08:33:48.422Z,6.2
2017-12-04T08:34:49.813Z,6.2
2017-12-04T08:35:51.212Z,6.2
2017-12-04T08:36:52.608Z,6.2
2017-12-04T08:37:53.999Z,6.2
2017-12-04T08:38:55.387Z,6.3
2017-12-04T08:39:56.773Z,6.2
2017-12-04T08:40:58.161Z,6.2
2017-12-04T08:41:59.559Z,6.2
2017-12-04T08:43:00.946Z,6.2
2017-12-04T08:44:02.296Z,6.3
2017-12-04T08:45:03.692Z,6.2
2017-12-04T08:46:05.080Z,6.2
2017-12-04T08:47:06.471Z,6.2
2017-12-04T08:48:07.858Z,6.3
2017-12-04T08:49:09.247Z,6.3
2017-12-04T08:50:10.642Z,6.3
2017-12-04T08:51:12.031Z,6.3
2017-12-04T08:52:13.426Z,6.4
2017-12-04T08:53:14.811Z,6.2
2017-12-04T08:54:16.200Z,6.3
2017-12-04T08:55:17.605Z,6.4
2017-12-04T08:56:18.994Z,6.4
2017-12-04T08:57:20.388Z,6.4
2017-12-04T08:58:21.780Z,6.5
2017-12-04T08:59:23.174Z,6.5
2017-12-04T09:00:24.565Z,6.4
2017-12-04T09:01:25.962Z,6.5
2017-12-04T09:02:27.348Z,6.5
2017-12-04T09:03:28.743Z,6.6
2017-12-04T09:04:30.135Z,6.6
2017-12-04T09:05:31.524Z,6.6
2017-12-04T09:06:32.916Z,6.6
2017-12-04T09:07:34.355Z,6.6
2017-12-04T09:08:35.754Z,6.6
2017-12-04T09:09:37.142Z,6.7
2017-12-04T09:10:38.532Z,6.7
2017-12-04T09:11:39.925Z,6.7
2017-12-04T09:12:41.318Z,6.7
2017-12-04T09:13:42.711Z,6.6
2017-12-04T09:14:44.098Z,6.7
2017-12-04T09:15:45.487Z,6.7
2017-12-04T09:16:46.877Z,6.7
2017-12-04T09:17:48.266Z,6.8
2017-12-04T09:18:49.658Z,6.7
2017-12-04T09:19:51.053Z,6.7
2017-12-04T09:20:52.443Z,6.8
2017-12-04T09:21:53.833Z,6.8
2017-12-04T09:22:55.217Z,6.9
2017-12-04T09:23:56.604Z,6.8
2017-12-04T09:24:57.994Z,6.8
2017-12-04T09:25:59.420Z,6.9
2017-12-04T09:27:00.789Z,6.9
2017-12-04T09:28:02.178Z,6.9
2017-12-04T09:29:03.565Z,6.9
2017-12-04T09:30:04.954Z,6.9
2017-12-04T09:31:06.342Z,6.9
2017-12-04T09:32:07.728Z,6.9
2017-12-04T09:33:09.118Z,7.0
2017-12-04T09:34:10.512Z,7.0
2017-12-04T09:35:11.906Z,6.9
2017-12-04T09:36:13.291Z,7.0
2017-12-04T09:37:14.685Z,7.0
2017-12-04T09:38:16.078Z,7.1
2017-12-04T09:39:17.467Z,7.2
2017-12-04T09:40:18.862Z,7.0
2017-12-04T09:41:20.256Z,7.2
2017-12-04T09:42:21.646Z,7.2
2017-12-04T09:43:23.037Z,7.4
2017-12-04T09:44:24.425Z,7.3
2017-12-04T09:45:25.816Z,7.4
2017-12-04T09:46:27.239Z,7.4
2017-12-04T09:47:28.643Z,7.4
2017-12-04T09:48:30.029Z,7.4
2017-12-04T09:49:31.420Z,7.5
2017-12-04T09:50:32.808Z,7.5
2017-12-04T09:51:34.199Z,7.5
2017-12-04T09:52:35.588Z,7.5
2017-12-04T09:53:36.982Z,7.5
2017-12-04T09:54:38.373Z,7.6
2017-12-04T09:55:39.764Z,7.4
2017-12-04T09:56:41.157Z,7.5
2017-12-04T09:57:42.563Z,7.6
2017-12-04T09:58:43.944Z,7.5
2017-12-04T09:59:45.354Z,7.5
2017-12-04T10:00:46.770Z,7.6
2017-12-04T10:01:48.161Z,7.6
2017-12-04T10:02:49.558Z,7.6
2017-12-04T10:03:50.951Z,7.7
2017-12-04T10:04:52.337Z,7.7
2017-12-04T10:05:53.732Z,7.7
2017-12-04T10:06:55.123Z,7.7
2017-12-04T10:07:56.512Z,7.6
2017-12-04T10:08:57.903Z,7.6
2017-12-04T10:09:59.292Z,7.6
2017-12-04T10:11:00.686Z,7.6
2017-12-04T10:12:02.078Z,7.6
2017-12-04T10:13:03.465Z,7.6
2017-12-04T10:14:04.860Z,7.6
2017-12-04T10:15:06.251Z,7.6
2017-12-04T10:16:07.649Z,7.6
2017-12-04T10:17:09.044Z,7.7
2017-12-04T10:18:10.466Z,7.8
2017-12-04T10:19:11.860Z,7.7
2017-12-04T10:20:13.210Z,7.7
2017-12-04T10:21:14.603Z,7.7
2017-12-04T10:22:15.996Z,7.7
2017-12-04T10:23:17.391Z,7.7
2017-12-04T10:24:18.784Z,7.7
2017-12-04T10:25:20.178Z,7.6
2017-12-04T10:26:21.566Z,7.6
2017-12-04T10:27:22.993Z,7.7
2017-12-04T10:28:24.386Z,7.6
2017-12-04T10:29:25.778Z,7.6
2017-12-04T10:30:27.175Z,7.6
2017-12-04T10:31:28.562Z,7.6
2017-12-04T10:32:29.952Z,7.7
2017-12-04T10:33:31.340Z,7.7
2017-12-04T10:34:32.729Z,7.7
2017-12-04T10:37:31.793Z,7.7
2017-12-04T10:38:33.186Z,7.7
2017-12-04T10:39:02.888Z,7.7
2017-12-04T10:40:04.278Z,7.7
2017-12-04T10:41:25.804Z,7.7
2017-12-04T10:42:27.536Z,7.7
2017-12-04T10:43:49.238Z,7.8
2017-12-04T10:44:50.630Z,7.7
2017-12-04T10:46:12.182Z,7.8
2017-12-04T10:47:13.567Z,7.7
2017-12-04T10:48:35.646Z,7.7
2017-12-04T10:49:37.560Z,7.7
2017-12-04T10:50:59.025Z,7.7
2017-12-04T10:52:00.412Z,7.7
2017-12-04T10:53:21.918Z,7.6
2017-12-04T10:54:23.299Z,7.7
2017-12-04T10:55:44.834Z,7.7
2017-12-04T10:56:46.681Z,7.7
2017-12-04T10:57:48.041Z,7.6
2017-12-04T10:58:49.448Z,7.6
2017-12-04T10:59:50.833Z,7.6
2017-12-04T11:00:52.222Z,7.7
2017-12-04T11:01:53.606Z,7.7
2017-12-04T11:02:54.995Z,7.6
2017-12-04T11:03:56.392Z,7.7
2017-12-04T11:04:58.295Z,7.6
2017-12-04T11:05:59.692Z,7.6
2017-12-04T11:07:01.238Z,7.7
2017-12-04T11:08:02.633Z,7.6
2017-12-04T11:09:04.022Z,7.6
2017-12-04T11:10:05.414Z,7.6
2017-12-04T11:11:06.816Z,7.6
2017-12-04T11:12:08.198Z,7.6
2017-12-04T11:13:09.636Z,7.6
2017-12-04T11:14:11.022Z,7.6
2017-12-04T11:15:12.417Z,7.6
2017-12-04T11:16:13.810Z,7.6
2017-12-04T11:17:15.200Z,7.6
2017-12-04T11:18:16.586Z,7.6
2017-12-04T11:19:57.513Z,7.6
2017-12-04T11:20:58.900Z,7.6
2017-12-04T11:22:20.445Z,7.6
2017-12-04T11:23:21.831Z,7.6
2017-12-04T11:24:43.324Z,7.6
2017-12-04T11:25:44.706Z,7.6
2017-12-04T11:27:06.229Z,7.7
2017-12-04T11:28:07.616Z,7.7
2017-12-04T11:29:29.111Z,7.7
2017-12-04T11:30:30.498Z,7.7
2017-12-04T11:31:52.025Z,7.7
2017-12-04T11:32:53.412Z,7.7
2017-12-04T11:34:14.907Z,7.7
2017-12-04T11:35:16.293Z,7.7
2017-12-04T11:36:38.460Z,7.7
2017-12-04T11:37:39.852Z,7.7
2017-12-04T11:38:41.247Z,7.7
2017-12-04T11:39:42.682Z,7.8
2017-12-04T11:40:44.106Z,7.8
2017-12-04T11:41:45.513Z,7.8
2017-12-04T11:42:46.924Z,7.8
2017-12-04T11:43:48.319Z,7.7
2017-12-04T11:44:49.707Z,7.7
2017-12-04T11:45:51.092Z,7.7
2017-12-04T11:46:52.551Z,7.7
2017-12-04T11:47:53.941Z,7.7
2017-12-04T11:48:55.328Z,7.7
2017-12-04T11:49:56.736Z,7.8
2017-12-04T11:50:58.127Z,7.7
2017-12-04T11:51:59.513Z,7.7
2017-12-04T11:53:00.916Z,7.8
2017-12-04T11:54:02.302Z,7.8
2017-12-04T11:55:03.689Z,7.7
2017-12-04T11:56:05.101Z,7.8
2017-12-04T11:57:06.491Z,7.8
2017-12-04T11:58:07.879Z,7.8
2017-12-04T11:59:09.267Z,7.7
2017-12-04T12:00:10.655Z,7.8
2017-12-04T12:01:12.044Z,7.8
2017-12-04T12:02:13.454Z,7.8
2017-12-04T12:03:14.844Z,7.9
2017-12-04T12:04:16.235Z,7.9
2017-12-04T12:05:17.643Z,7.9
2017-12-04T12:06:19.029Z,7.8
2017-12-04T12:07:20.422Z,7.8
2017-12-04T12:08:21.861Z,7.8
2017-12-04T12:09:23.250Z,7.9
2017-12-04T12:10:24.640Z,7.9
2017-12-04T12:11:26.031Z,8.0
2017-12-04T12:12:27.423Z,7.9
2017-12-04T12:13:28.811Z,8.0
2017-12-04T12:14:30.197Z,8.0
2017-12-04T12:15:31.584Z,8.0
2017-12-04T12:16:32.976Z,8.0
2017-12-04T12:17:34.363Z,8.1
2017-12-04T12:18:35.754Z,8.1
2017-12-04T12:19:37.144Z,8.1
2017-12-04T12:20:38.544Z,8.1
2017-12-04T12:21:39.920Z,8.2
2017-12-04T12:22:41.307Z,8.1
2017-12-04T12:23:42.707Z,8.1
2017-12-04T12:24:44.098Z,8.3
2017-12-04T12:25:45.488Z,8.2
2017-12-04T12:26:46.880Z,8.4
2017-12-04T12:27:48.273Z,8.4
2017-12-04T12:28:49.661Z,8.4
2017-12-04T12:29:51.050Z,8.4
2017-12-04T12:30:52.441Z,8.3
2017-12-04T12:31:53.834Z,8.4
2017-12-04T12:32:55.224Z,8.4
2017-12-04T12:33:56.616Z,8.5
2017-12-04T12:34:58.007Z,8.6
2017-12-04T12:35:59.397Z,8.6
2017-12-04T12:37:00.785Z,8.8
2017-12-04T12:38:02.176Z,8.7
2017-12-04T12:39:03.566Z,8.8
2017-12-04T12:40:04.962Z,8.8
2017-12-04T12:41:06.370Z,9.0
2017-12-04T12:42:07.760Z,9.1
2017-12-04T12:43:09.148Z,9.2
2017-12-04T12:44:10.538Z,9.4
2017-12-04T12:45:11.927Z,9.4
2017-12-04T12:46:13.319Z,9.3
2017-12-04T12:47:14.713Z,9.4
2017-12-04T12:48:16.105Z,9.3
2017-12-04T12:49:17.515Z,9.3
2017-12-04T12:50:18.902Z,9.3
2017-12-04T12:51:20.293Z,9.3
2017-12-04T12:52:21.685Z,9.3
2017-12-04T12:53:23.077Z,9.3
2017-12-04T12:54:24.469Z,9.3
2017-12-04T12:55:25.863Z,9.3
2017-12-04T12:56:27.251Z,9.1
2017-12-04T12:57:28.640Z,9.1
2017-12-04T12:58:30.038Z,9.0
2017-12-04T12:59:31.419Z,8.9
2017-12-04T13:00:32.810Z,9.0
2017-12-04T13:01:34.200Z,8.9
2017-12-04T13:02:35.594Z,9.1
2017-12-04T13:03:36.984Z,9.0
2017-12-04T13:04:38.412Z,9.1
2017-12-04T13:05:39.765Z,9.0
2017-12-04T13:06:41.195Z,9.0
2017-12-04T13:07:42.585Z,9.0
2017-12-04T13:08:43.976Z,8.9
2017-12-04T13:09:45.370Z,8.9
2017-12-04T13:10:46.757Z,8.8
2017-12-04T13:11:48.151Z,8.9
2017-12-04T13:12:49.603Z,8.8
2017-12-04T13:13:50.994Z,8.9
2017-12-04T13:14:52.383Z,8.9
2017-12-04T13:15:53.775Z,8.9
2017-12-04T13:16:55.210Z,8.9
2017-12-04T13:17:56.623Z,8.8
2017-12-04T13:18:57.994Z,8.8
2017-12-04T13:19:59.387Z,8.8
2017-12-04T13:21:00.777Z,8.8
2017-12-04T13:22:02.169Z,9.0
2017-12-04T13:23:03.560Z,8.9
2017-12-04T13:24:04.953Z,8.9
2017-12-04T13:25:06.342Z,9.0
2017-12-04T13:26:07.731Z,9.0
2017-12-04T13:27:09.120Z,9.0
2017-12-04T13:28:10.509Z,9.1
2017-12-04T13:29:11.901Z,9.0
2017-12-04T13:30:13.289Z,9.0
2017-12-04T13:31:14.681Z,8.8
2017-12-04T13:32:16.070Z,8.8
2017-12-04T13:33:17.457Z,8.8
2017-12-04T13:34:18.846Z,9.0
2017-12-04T13:35:20.237Z,9.0
2017-12-04T13:36:21.627Z,9.0
2017-12-04T13:37:23.017Z,9.0
2017-12-04T13:38:24.407Z,8.9
2017-12-04T13:39:25.796Z,8.8
2017-12-04T13:40:27.189Z,8.8
2017-12-04T13:41:28.648Z,8.8
2017-12-04T13:42:30.035Z,8.8
2017-12-04T13:43:31.430Z,8.8
2017-12-04T13:44:32.818Z,8.8
2017-12-04T13:45:34.208Z,8.8
2017-12-04T13:46:35.597Z,8.8
2017-12-04T13:47:36.983Z,8.9
2017-12-04T13:48:38.374Z,8.8
2017-12-04T13:49:39.764Z,8.9
2017-12-04T13:50:41.155Z,8.9
2017-12-04T13:51:42.545Z,8.8
2017-12-04T13:52:43.936Z,9.0
2017-12-04T13:53:45.324Z,8.9
2017-12-04T13:54:46.712Z,8.9
2017-12-04T13:55:48.099Z,8.9
2017-12-04T13:56:49.492Z,8.9
2017-12-04T13:57:50.881Z,8.8
2017-12-04T13:58:52.275Z,8.8
2017-12-04T13:59:53.669Z,8.8
2017-12-04T14:00:55.058Z,8.9
2017-12-04T14:01:56.445Z,8.9
2017-12-04T14:02:57.835Z,8.8
2017-12-04T14:03:59.227Z,8.9
2017-12-04T14:05:00.619Z,8.9
2017-12-04T14:06:02.007Z,8.9
2017-12-04T14:07:03.398Z,8.9
2017-12-04T14:08:04.793Z,8.8
2017-12-04T14:09:06.180Z,8.8
2017-12-04T14:10:07.569Z,8.8
2017-12-04T14:11:08.957Z,8.8
2017-12-04T14:12:10.350Z,8.7